createdAt,value
2023-01-25T00:03:34.287Z,23.85
2023-01-25T00:08:30.803Z,24.20
2023-01-25T00:13:27.320Z,24.73
2023-01-25T00:18:23.792Z,24.70
2023-01-25T00:23:20.202Z,24.85
2023-01-25T00:28:16.660Z,25.30
2023-01-25T00:33:15.756Z,25.77
2023-01-25T00:38:28.610Z,24.83
2023-01-25T00:43:25.225Z,26.63
2023-01-25T00:48:21.649Z,26.98
2023-01-25T00:53:18.050Z,23.77
2023-01-25T00:58:14.431Z,23.70
2023-01-25T01:03:10.854Z,23.95
2023-01-25T01:08:07.285Z,24.45
2023-01-25T01:13:03.829Z,25.27
2023-01-25T01:18:00.200Z,24.92
2023-01-25T01:22:56.779Z,27.23
2023-01-25T01:27:53.145Z,25.23
2023-01-25T01:32:51.465Z,24.85
2023-01-25T01:37:47.957Z,22.55
2023-01-25T01:43:01.238Z,24.73
2023-01-25T01:47:57.610Z,23.90
2023-01-25T01:52:54.162Z,22.80
2023-01-25T01:57:56.019Z,21.95
2023-01-25T02:02:54.360Z,22.83
2023-01-25T02:07:54.755Z,22.55
2023-01-25T02:12:54.133Z,22.88
2023-01-25T02:17:51.426Z,22.98
2023-01-25T02:23:05.290Z,21.77
2023-01-25T02:28:22.476Z,22.90
2023-01-25T02:33:18.962Z,24.02
2023-01-25T02:38:18.173Z,24.88
2023-01-25T02:43:16.188Z,23.17
2023-01-25T02:48:12.580Z,25.95
2023-01-25T02:53:09.113Z,23.27
2023-01-25T02:58:05.503Z,23.15
2023-01-25T03:03:01.966Z,23.55
2023-01-25T03:07:58.442Z,24.40
2023-01-25T03:12:54.826Z,23.10
2023-01-25T03:17:51.311Z,22.92
2023-01-25T03:22:47.804Z,24.48
2023-01-25T03:27:44.216Z,25.65
2023-01-25T03:32:40.660Z,25.80
2023-01-25T03:37:37.102Z,25.15
2023-01-25T03:42:33.478Z,24.52
2023-01-25T03:47:29.920Z,27.77
2023-01-25T03:52:29.969Z,24.10
2023-01-25T03:57:26.406Z,24.10
2023-01-25T04:02:22.894Z,29.25
2023-01-25T04:07:20.011Z,24.75
2023-01-25T04:12:16.429Z,27.33
2023-01-25T04:17:14.002Z,24.40
2023-01-25T04:22:10.526Z,25.60
2023-01-25T04:27:07.066Z,26.67
2023-01-25T04:32:03.645Z,24.70
2023-01-25T04:37:00.115Z,24.38
2023-01-25T04:41:56.511Z,27.63
2023-01-25T04:46:52.932Z,27.63
2023-01-25T04:51:49.384Z,26.25
2023-01-25T04:56:45.823Z,26.85
2023-01-25T05:01:42.252Z,24.88
2023-01-25T05:06:38.636Z,26.58
2023-01-25T05:11:35.087Z,22.65
2023-01-25T05:16:31.642Z,23.13
2023-01-25T05:21:46.811Z,25.50
2023-01-25T05:27:01.593Z,21.98
2023-01-25T05:31:59.213Z,22.15
2023-01-25T05:36:56.345Z,19.77
2023-01-25T05:41:53.012Z,20.92
2023-01-25T05:46:50.283Z,21.33
2023-01-25T05:51:47.252Z,22.63
2023-01-25T05:56:44.220Z,22.98
2023-01-25T06:01:40.698Z,23.88
2023-01-25T06:06:37.117Z,24.00
2023-01-25T06:11:33.608Z,23.92
2023-01-25T06:16:30.040Z,24.95
2023-01-25T06:21:26.484Z,25.50
2023-01-25T06:26:22.931Z,25.67
2023-01-25T06:31:19.445Z,24.90
2023-01-25T06:36:18.545Z,25.13
2023-01-25T06:41:15.532Z,26.35
2023-01-25T06:46:12.620Z,24.38
2023-01-25T06:51:11.229Z,24.42
2023-01-25T06:56:11.814Z,28.35
2023-01-25T07:01:21.685Z,23.85
2023-01-25T07:06:19.159Z,25.80
2023-01-25T07:11:19.151Z,26.15
2023-01-25T07:16:19.233Z,24.95
2023-01-25T07:21:21.761Z,25.02
2023-01-25T07:26:25.733Z,24.63
2023-01-25T07:31:22.554Z,25.85
2023-01-25T07:36:19.261Z,23.77
2023-01-25T07:41:16.432Z,23.85
2023-01-25T07:46:13.984Z,23.30
2023-01-25T07:51:22.484Z,24.65
2023-01-25T07:56:20.061Z,24.77
2023-01-25T08:01:19.343Z,26.42
2023-01-25T08:06:16.583Z,25.27
2023-01-25T08:11:18.538Z,26.02
2023-01-25T08:16:17.072Z,25.42
2023-01-25T08:21:13.715Z,26.27
2023-01-25T08:26:12.552Z,27.33
2023-01-25T08:31:21.276Z,27.25
2023-01-25T08:36:19.075Z,28.25
2023-01-25T08:41:18.317Z,28.67
2023-01-25T08:46:16.327Z,26.77
2023-01-25T08:51:14.797Z,26.52
2023-01-25T08:56:14.188Z,27.95
2023-01-25T09:01:12.716Z,27.20
2023-01-25T09:06:10.048Z,31.55
2023-01-25T09:11:09.212Z,26.70
2023-01-25T09:16:08.234Z,29.17
2023-01-25T09:21:13.012Z,26.45
2023-01-25T09:26:10.332Z,27.67
2023-01-25T09:31:21.105Z,28.83
2023-01-25T09:36:19.309Z,28.27
2023-01-25T09:41:53.520Z,28.10
2023-01-25T09:46:58.056Z,30.77
2023-01-25T09:52:12.111Z,29.52
2023-01-25T09:57:18.683Z,29.80
2023-01-25T10:02:30.186Z,33.67
2023-01-25T10:07:34.398Z,30.08
2023-01-25T10:12:36.030Z,31.05
2023-01-25T10:17:37.165Z,29.93
2023-01-25T10:22:41.252Z,29.40
2023-01-25T10:28:02.062Z,29.42
2023-01-25T10:33:02.175Z,31.95
2023-01-25T10:38:04.968Z,28.38
2023-01-25T10:43:07.748Z,32.90
2023-01-25T10:48:09.212Z,32.75
2023-01-25T10:53:05.581Z,37.27
2023-01-25T10:58:02.005Z,36.58
2023-01-25T11:02:58.791Z,34.83
2023-01-25T11:07:56.493Z,34.00
2023-01-25T11:13:19.300Z,34.00
2023-01-25T11:18:22.988Z,35.40
2023-01-25T11:23:26.123Z,36.45
2023-01-25T11:28:25.624Z,33.25
2023-01-25T11:33:22.738Z,35.08
2023-01-25T11:38:23.082Z,35.22
2023-01-25T11:44:01.765Z,34.83
2023-01-25T11:49:16.624Z,34.63
2023-01-25T11:54:37.446Z,32.40
2023-01-25T11:59:39.760Z,33.17
2023-01-25T12:10:18.443Z,32.33
2023-01-25T12:15:23.671Z,31.73
2023-01-25T12:20:40.855Z,36.35
2023-01-25T12:25:58.898Z,31.73
2023-01-25T12:31:22.722Z,32.92
2023-01-25T12:36:27.906Z,31.38
2023-01-25T12:41:48.537Z,30.88
2023-01-25T12:47:05.241Z,31.15
2023-01-25T12:52:07.183Z,31.77
2023-01-25T12:57:16.442Z,32.65
2023-01-25T13:02:37.038Z,30.17
2023-01-25T13:07:43.404Z,30.35
2023-01-25T13:12:58.617Z,30.15
2023-01-25T13:17:55.107Z,30.83
2023-01-25T13:22:53.429Z,28.98
2023-01-25T13:27:50.315Z,30.13
2023-01-25T13:32:49.559Z,28.52
2023-01-25T13:37:58.137Z,29.65
2023-01-25T13:43:12.547Z,29.70
2023-01-25T13:48:08.925Z,30.83
2023-01-25T13:53:18.782Z,30.45
2023-01-25T13:58:34.654Z,31.23
2023-01-25T14:03:51.309Z,32.22
2023-01-25T14:08:48.871Z,28.95
2023-01-25T14:14:17.887Z,32.33
2023-01-25T14:19:24.819Z,31.60
2023-01-25T14:24:21.261Z,34.50
2023-01-25T14:29:35.255Z,35.92
2023-01-25T14:34:31.786Z,35.50
2023-01-25T14:39:29.306Z,33.40
2023-01-25T14:44:26.182Z,36.90
2023-01-25T14:49:25.699Z,36.30
2023-01-25T14:54:28.240Z,38.22
2023-01-25T15:04:23.820Z,39.58
2023-01-25T15:09:33.565Z,38.10
2023-01-25T15:14:30.057Z,35.30
2023-01-25T15:19:29.836Z,40.75
2023-01-25T15:24:27.699Z,39.05
2023-01-25T15:29:27.313Z,38.83
2023-01-25T15:34:30.257Z,40.08
2023-01-25T15:39:26.884Z,41.13
2023-01-25T15:44:23.277Z,42.38
2023-01-25T15:49:31.498Z,38.58
2023-01-25T15:54:27.894Z,41.50
2023-01-25T15:59:25.188Z,38.40
2023-01-25T16:04:21.674Z,38.60
2023-01-25T16:09:30.775Z,39.45
2023-01-25T16:14:30.174Z,40.95
2023-01-25T16:19:26.714Z,38.80
2023-01-25T16:24:23.584Z,36.45
2023-01-25T16:29:21.497Z,41.40
2023-01-25T16:34:17.882Z,41.92
2023-01-25T16:39:22.450Z,41.05
2023-01-25T16:44:19.126Z,39.30
2023-01-25T16:49:21.418Z,44.10
2023-01-25T16:59:17.292Z,37.88
2023-01-25T17:04:13.891Z,36.05
2023-01-25T17:09:22.798Z,35.95
2023-01-25T17:14:22.071Z,37.83
2023-01-25T17:19:19.183Z,35.95
2023-01-25T17:24:20.789Z,42.47
2023-01-25T17:29:17.376Z,35.65
2023-01-25T17:34:19.786Z,34.88
2023-01-25T17:39:19.497Z,35.25
2023-01-25T17:44:21.289Z,33.83
2023-01-25T17:49:20.187Z,32.08
2023-01-25T17:54:16.780Z,34.25
2023-01-25T17:59:13.240Z,35.78
2023-01-25T18:04:10.029Z,39.45
2023-01-25T18:09:06.949Z,38.38
2023-01-25T18:14:09.278Z,38.17
2023-01-25T18:24:23.091Z,39.75
2023-01-25T18:29:41.913Z,40.92
2023-01-25T18:34:38.352Z,39.08
2023-01-25T18:39:34.783Z,39.97
2023-01-25T18:44:31.259Z,46.95
2023-01-25T18:49:27.700Z,41.60
2023-01-25T18:54:24.181Z,45.15
2023-01-25T18:59:20.595Z,44.10
2023-01-25T19:04:17.030Z,45.17
2023-01-25T19:09:13.474Z,46.08
2023-01-25T19:14:09.952Z,43.83
2023-01-25T19:19:06.372Z,49.10
2023-01-25T19:24:02.883Z,43.97
2023-01-25T19:28:59.320Z,43.28
2023-01-25T19:34:00.317Z,40.20
2023-01-25T19:38:58.122Z,41.13
2023-01-25T19:43:59.583Z,38.35
2023-01-25T19:48:56.823Z,40.80
2023-01-25T19:53:59.942Z,40.72
2023-01-25T19:58:56.727Z,42.25
2023-01-25T20:03:55.675Z,44.03
2023-01-25T20:08:52.910Z,44.28
2023-01-25T20:13:52.163Z,44.60
2023-01-25T20:18:49.614Z,44.80
2023-01-25T20:23:48.387Z,44.30
2023-01-25T20:28:47.152Z,43.10
2023-01-25T20:33:43.533Z,45.65
2023-01-25T20:38:40.092Z,47.25
2023-01-25T20:43:36.561Z,44.85
2023-01-25T20:48:36.312Z,44.28
2023-01-25T20:53:33.685Z,43.15
2023-01-25T20:58:30.200Z,45.13
2023-01-25T21:03:29.123Z,43.28
2023-01-25T21:08:27.746Z,45.03
2023-01-25T21:13:25.284Z,48.28
2023-01-25T21:18:21.713Z,44.47
2023-01-25T21:23:18.103Z,43.95
2023-01-25T21:28:14.477Z,47.30
2023-01-25T21:33:10.969Z,47.63
2023-01-25T21:38:07.405Z,46.38
2023-01-25T21:43:04.018Z,50.35
2023-01-25T21:48:00.489Z,50.85
2023-01-25T21:52:57.001Z,51.92
2023-01-25T21:57:53.423Z,51.28
2023-01-25T22:02:51.628Z,49.85
2023-01-25T22:07:48.076Z,51.33
2023-01-25T22:12:45.437Z,51.90
2023-01-25T22:17:41.889Z,49.85
2023-01-25T22:22:38.301Z,51.67
2023-01-25T22:27:46.037Z,51.60
2023-01-25T22:32:42.536Z,50.95
2023-01-25T22:37:38.932Z,50.88
2023-01-25T22:42:35.464Z,51.50
2023-01-25T22:47:31.866Z,51.67
2023-01-25T22:52:28.314Z,52.63
2023-01-25T22:57:24.697Z,56.05
2023-01-25T23:02:21.443Z,53.35
2023-01-25T23:07:18.877Z,54.17
2023-01-25T23:12:15.526Z,56.35
2023-01-25T23:17:30.870Z,54.88
2023-01-25T23:22:27.684Z,50.65
2023-01-25T23:27:24.112Z,52.58
2023-01-25T23:32:21.445Z,51.28
2023-01-25T23:37:17.877Z,57.55
2023-01-25T23:42:14.335Z,53.35
2023-01-25T23:47:10.792Z,50.30
2023-01-25T23:52:07.211Z,48.80
2023-01-25T23:57:03.713Z,49.13
